createdAt,value
2019-03-31T00:02:25.126Z,18.50
2019-03-31T00:05:16.014Z,17.73
2019-03-31T00:08:06.478Z,18.80
2019-03-31T00:11:00.440Z,17.90
2019-03-31T00:13:49.334Z,17.73
2019-03-31T00:16:40.259Z,18.03
2019-03-31T00:19:31.147Z,18.63
2019-03-31T00:22:21.855Z,17.27
2019-03-31T00:25:12.695Z,17.30
2019-03-31T00:28:03.190Z,18.23
2019-03-31T00:30:54.986Z,16.77
2019-03-31T00:33:45.803Z,16.40
2019-03-31T00:36:36.795Z,17.30
2019-03-31T00:39:27.720Z,15.90
2019-03-31T00:42:18.315Z,18.73
2019-03-31T00:45:08.970Z,16.30
2019-03-31T00:47:59.854Z,16.77
2019-03-31T00:50:50.511Z,16.20
2019-03-31T00:53:41.273Z,16.37
2019-03-31T00:56:32.329Z,18.20
2019-03-31T00:59:23.037Z,18.63
2019-03-31T01:02:18.997Z,16.27
2019-03-31T01:05:11.203Z,18.00
2019-03-31T01:08:03.029Z,17.23
2019-03-31T01:10:54.139Z,17.87
2019-03-31T01:13:45.911Z,16.80
2019-03-31T01:16:36.824Z,17.67
2019-03-31T01:19:27.945Z,18.10
2019-03-31T01:22:19.808Z,16.90
2019-03-31T01:25:10.893Z,18.57
2019-03-31T01:28:01.606Z,17.17
2019-03-31T01:30:52.597Z,18.97
2019-03-31T01:33:45.085Z,16.93
2019-03-31T01:36:35.979Z,17.93
2019-03-31T01:39:28.516Z,15.97
2019-03-31T01:42:19.006Z,16.80
2019-03-31T01:45:10.302Z,17.50
2019-03-31T01:48:00.678Z,16.30
2019-03-31T01:50:51.680Z,18.00
2019-03-31T01:53:42.651Z,15.43
2019-03-31T01:56:33.688Z,16.33
2019-03-31T01:59:24.643Z,16.00
2019-03-31T02:02:20.648Z,17.03
2019-03-31T02:05:11.557Z,18.03
2019-03-31T02:08:02.623Z,19.13
2019-03-31T02:10:53.523Z,17.40
2019-03-31T02:13:44.153Z,17.80
2019-03-31T02:16:34.959Z,17.87
2019-03-31T02:19:25.799Z,17.70
2019-03-31T02:22:16.680Z,18.50
2019-03-31T02:25:07.916Z,17.00
2019-03-31T02:27:58.849Z,17.60
2019-03-31T02:30:49.403Z,17.13
2019-03-31T02:33:40.167Z,15.63
2019-03-31T02:36:30.723Z,16.13
2019-03-31T02:39:21.671Z,16.77
2019-03-31T02:42:12.490Z,16.83
2019-03-31T02:45:02.375Z,17.83
2019-03-31T02:47:54.494Z,16.77
2019-03-31T02:50:50.264Z,17.00
2019-03-31T02:53:41.925Z,16.10
2019-03-31T02:56:34.102Z,16.60
2019-03-31T02:59:25.647Z,15.80
2019-03-31T03:02:17.169Z,16.77
2019-03-31T03:05:18.702Z,16.97
2019-03-31T03:08:03.581Z,18.20
2019-03-31T03:10:54.846Z,16.80
2019-03-31T03:13:48.065Z,17.80
2019-03-31T03:16:39.070Z,16.50
2019-03-31T03:19:30.029Z,16.60
2019-03-31T03:22:20.878Z,16.27
2019-03-31T03:25:11.900Z,17.43
2019-03-31T03:28:02.598Z,15.40
2019-03-31T03:30:53.906Z,16.33
2019-03-31T03:33:45.293Z,16.73
2019-03-31T03:36:36.415Z,15.47
2019-03-31T03:39:27.441Z,15.53
2019-03-31T03:42:18.348Z,16.37
2019-03-31T03:45:09.140Z,14.97
2019-03-31T03:48:00.023Z,14.70
2019-03-31T03:50:50.844Z,16.40
2019-03-31T03:53:41.531Z,15.70
2019-03-31T03:56:32.136Z,16.27
2019-03-31T03:59:22.933Z,17.00
2019-03-31T04:02:13.670Z,15.67
2019-03-31T04:05:05.535Z,15.10
2019-03-31T04:07:55.913Z,16.03
2019-03-31T04:11:28.217Z,15.83
2019-03-31T04:14:18.103Z,15.00
2019-03-31T04:17:08.594Z,15.90
2019-03-31T04:19:59.434Z,15.93
2019-03-31T04:22:50.188Z,15.53
2019-03-31T04:25:41.046Z,17.00
2019-03-31T04:28:31.495Z,15.83
2019-03-31T04:31:22.646Z,14.87
2019-03-31T04:34:14.165Z,15.43
2019-03-31T04:37:05.308Z,16.67
2019-03-31T04:39:56.004Z,15.77
2019-03-31T04:42:46.937Z,15.60
2019-03-31T04:45:37.649Z,16.27
2019-03-31T04:48:28.216Z,15.47
2019-03-31T04:51:18.746Z,15.63
2019-03-31T04:54:09.828Z,15.00
2019-03-31T04:57:00.095Z,15.70
2019-03-31T04:59:50.716Z,15.33
2019-03-31T05:02:41.590Z,17.70
2019-03-31T05:05:32.462Z,15.30
2019-03-31T05:08:23.327Z,15.27
2019-03-31T05:11:13.865Z,15.10
2019-03-31T05:14:04.414Z,15.83
2019-03-31T05:16:54.990Z,15.97
2019-03-31T05:19:45.613Z,16.60
2019-03-31T05:22:36.349Z,16.50
2019-03-31T05:25:27.115Z,16.30
2019-03-31T05:28:17.989Z,15.30
2019-03-31T05:31:08.963Z,14.80
2019-03-31T05:33:59.975Z,15.57
2019-03-31T05:36:51.093Z,14.93
2019-03-31T05:39:42.870Z,15.07
2019-03-31T05:42:33.758Z,16.83
2019-03-31T05:45:24.303Z,15.37
2019-03-31T05:48:15.240Z,16.37
2019-03-31T05:51:06.096Z,17.50
2019-03-31T05:53:57.015Z,18.27
2019-03-31T05:56:47.585Z,22.30
2019-03-31T05:59:38.384Z,21.20
2019-03-31T06:02:28.996Z,19.63
2019-03-31T06:05:19.909Z,28.83
2019-03-31T06:08:10.447Z,22.80
2019-03-31T06:11:01.724Z,18.87
2019-03-31T06:13:52.790Z,20.07
2019-03-31T06:16:43.770Z,21.40
2019-03-31T06:19:34.491Z,22.10
2019-03-31T06:22:25.580Z,19.33
2019-03-31T06:25:16.078Z,17.47
2019-03-31T06:28:06.455Z,19.70
2019-03-31T06:30:57.056Z,20.13
2019-03-31T06:33:47.472Z,19.77
2019-03-31T06:36:38.390Z,18.60
2019-03-31T06:39:29.078Z,20.53
2019-03-31T06:42:19.960Z,18.27
2019-03-31T06:45:11.181Z,17.00
2019-03-31T06:48:01.745Z,20.17
2019-03-31T06:50:52.689Z,20.90
2019-03-31T06:53:43.698Z,21.33
2019-03-31T06:56:34.810Z,20.20
2019-03-31T06:59:26.039Z,21.50
2019-03-31T07:02:17.755Z,19.57
2019-03-31T07:05:08.973Z,19.30
2019-03-31T07:08:00.332Z,24.30
2019-03-31T07:10:51.126Z,22.40
2019-03-31T07:13:41.634Z,32.37
2019-03-31T07:16:32.435Z,34.77
2019-03-31T07:19:23.807Z,32.40
2019-03-31T07:22:14.622Z,34.40
2019-03-31T07:25:07.012Z,34.57
2019-03-31T07:27:57.543Z,34.83
2019-03-31T07:30:48.223Z,35.60
2019-03-31T07:33:38.814Z,35.37
2019-03-31T07:36:29.760Z,34.50
2019-03-31T07:39:20.295Z,34.03
2019-03-31T07:42:11.085Z,36.97
2019-03-31T07:45:01.926Z,37.60
2019-03-31T07:47:52.841Z,37.70
2019-03-31T07:50:43.710Z,37.83
2019-03-31T07:53:34.591Z,33.73
2019-03-31T07:56:25.576Z,38.33
2019-03-31T07:59:16.360Z,35.30
2019-03-31T08:02:06.907Z,33.83
2019-03-31T08:04:57.502Z,36.77
2019-03-31T08:07:48.102Z,38.60
2019-03-31T08:10:38.063Z,35.57
2019-03-31T08:13:28.805Z,37.80
2019-03-31T08:16:19.321Z,35.00
2019-03-31T08:19:09.600Z,37.83
2019-03-31T08:22:00.428Z,38.20
2019-03-31T08:24:51.867Z,33.40
2019-03-31T08:27:42.881Z,34.00
2019-03-31T08:30:33.634Z,36.60
2019-03-31T08:33:23.682Z,33.33
2019-03-31T08:36:14.594Z,31.83
2019-03-31T08:39:08.500Z,34.20
2019-03-31T08:41:59.052Z,33.90
2019-03-31T08:44:50.071Z,36.10
2019-03-31T08:47:40.843Z,36.57
2019-03-31T08:50:34.709Z,33.93
2019-03-31T08:53:24.137Z,36.97
2019-03-31T08:56:14.546Z,36.27
2019-03-31T08:59:05.106Z,34.00
2019-03-31T09:01:56.561Z,31.17
2019-03-31T09:04:47.520Z,32.77
2019-03-31T09:07:41.673Z,35.40
2019-03-31T09:10:31.489Z,33.33
2019-03-31T09:13:23.883Z,34.20
2019-03-31T09:16:14.807Z,34.40
2019-03-31T09:19:05.694Z,36.77
2019-03-31T09:21:57.654Z,35.20
2019-03-31T09:24:48.200Z,34.27
2019-03-31T09:27:38.199Z,32.43
2019-03-31T09:30:28.793Z,33.67
2019-03-31T09:33:19.357Z,31.73
2019-03-31T09:36:16.417Z,35.73
2019-03-31T09:39:02.713Z,36.93
2019-03-31T09:41:54.058Z,35.90
2019-03-31T09:44:45.138Z,34.67
2019-03-31T09:47:35.624Z,34.27
2019-03-31T09:50:26.486Z,34.20
2019-03-31T09:53:17.431Z,33.97
2019-03-31T09:56:08.327Z,32.73
2019-03-31T09:58:58.900Z,32.53
2019-03-31T10:01:49.717Z,32.77
2019-03-31T10:04:39.697Z,30.70
2019-03-31T10:07:30.747Z,32.57
2019-03-31T10:10:34.055Z,30.63
2019-03-31T10:13:27.421Z,28.60
2019-03-31T10:16:18.296Z,27.90
2019-03-31T10:19:08.879Z,30.30
2019-03-31T10:21:59.867Z,25.70
2019-03-31T10:24:50.158Z,30.10
2019-03-31T10:27:41.058Z,28.23
2019-03-31T10:30:36.626Z,29.40
2019-03-31T10:33:28.607Z,29.27
2019-03-31T10:36:19.260Z,29.70
2019-03-31T10:39:11.242Z,30.37
2019-03-31T10:42:01.460Z,26.70
2019-03-31T10:44:52.002Z,29.97
2019-03-31T10:47:42.709Z,29.20
2019-03-31T10:50:33.570Z,30.20
2019-03-31T10:53:24.766Z,28.80
2019-03-31T10:56:15.403Z,30.87
2019-03-31T10:59:06.017Z,28.77
2019-03-31T11:01:57.081Z,30.73
2019-03-31T11:04:47.734Z,31.57
2019-03-31T11:07:38.560Z,28.13
2019-03-31T11:10:28.985Z,29.17
2019-03-31T11:13:20.187Z,32.50
2019-03-31T11:16:10.939Z,30.53
2019-03-31T11:19:00.767Z,31.17
2019-03-31T11:21:59.471Z,30.43
2019-03-31T11:24:50.071Z,32.73
2019-03-31T11:27:43.699Z,27.13
2019-03-31T11:30:33.023Z,28.00
2019-03-31T11:33:24.037Z,27.33
2019-03-31T11:36:15.444Z,28.73
2019-03-31T11:39:08.866Z,31.87
2019-03-31T11:41:59.842Z,31.30
2019-03-31T11:44:51.332Z,31.00
2019-03-31T11:47:41.997Z,29.30
2019-03-31T11:50:32.954Z,33.77
2019-03-31T11:53:23.810Z,32.90
2019-03-31T11:56:14.819Z,31.97
2019-03-31T11:59:05.371Z,29.47
2019-03-31T12:01:55.910Z,26.37
2019-03-31T12:04:46.351Z,27.53
2019-03-31T12:07:46.768Z,29.47
2019-03-31T12:10:29.252Z,24.83
2019-03-31T12:13:19.697Z,27.70
2019-03-31T12:16:11.283Z,26.83
2019-03-31T12:19:01.882Z,28.20
2019-03-31T12:21:53.879Z,26.30
2019-03-31T12:24:44.680Z,24.50
2019-03-31T12:27:37.578Z,27.07
2019-03-31T12:30:31.856Z,24.57
2019-03-31T12:33:22.555Z,26.60
2019-03-31T12:36:13.597Z,26.80
2019-03-31T12:39:06.623Z,27.33
2019-03-31T12:41:57.469Z,22.70
2019-03-31T12:44:48.203Z,25.03
2019-03-31T12:47:38.816Z,26.60
2019-03-31T12:50:29.826Z,28.10
2019-03-31T12:53:20.558Z,23.93
2019-03-31T12:56:10.936Z,23.70
2019-03-31T12:59:01.839Z,18.93
2019-03-31T13:01:52.115Z,20.87
2019-03-31T13:04:43.014Z,20.50
2019-03-31T13:07:33.648Z,21.40
2019-03-31T13:10:24.562Z,20.30
2019-03-31T13:13:15.475Z,22.17
2019-03-31T13:16:06.118Z,18.50
2019-03-31T13:18:57.097Z,18.23
2019-03-31T13:21:47.795Z,16.17
2019-03-31T13:24:38.464Z,20.20
2019-03-31T13:27:28.982Z,24.53
2019-03-31T13:30:21.958Z,25.27
2019-03-31T13:33:12.806Z,19.47
2019-03-31T13:36:03.869Z,13.80
2019-03-31T13:38:54.778Z,14.17
2019-03-31T13:41:47.155Z,12.43
2019-03-31T13:44:38.800Z,13.87
2019-03-31T13:47:29.772Z,14.23
2019-03-31T13:50:21.418Z,12.40
2019-03-31T13:53:11.823Z,12.80
2019-03-31T13:56:02.310Z,13.73
2019-03-31T13:58:52.916Z,14.63
2019-03-31T14:01:44.138Z,15.10
2019-03-31T14:04:40.293Z,14.23
2019-03-31T14:07:27.422Z,13.27
2019-03-31T14:10:17.581Z,12.57
2019-03-31T14:13:18.435Z,13.13
2019-03-31T14:16:08.930Z,14.70
2019-03-31T14:18:59.762Z,13.27
2019-03-31T14:21:50.910Z,13.50
2019-03-31T14:24:42.033Z,13.60
2019-03-31T14:27:32.904Z,14.20
2019-03-31T14:30:24.080Z,14.23
2019-03-31T14:33:14.627Z,12.60
2019-03-31T14:36:04.827Z,12.30
2019-03-31T14:38:54.499Z,12.87
2019-03-31T14:41:44.431Z,13.10
2019-03-31T14:44:35.103Z,12.47
2019-03-31T14:47:26.176Z,11.27
2019-03-31T14:50:30.854Z,13.70
2019-03-31T14:53:21.839Z,13.53
2019-03-31T14:56:12.561Z,12.07
2019-03-31T14:59:03.640Z,12.73
2019-03-31T15:01:54.477Z,12.80
2019-03-31T15:04:44.670Z,10.17
2019-03-31T15:07:36.802Z,9.40
2019-03-31T15:10:27.432Z,10.00
2019-03-31T15:13:18.092Z,10.00
2019-03-31T15:16:09.447Z,9.17
2019-03-31T15:19:00.809Z,9.83
2019-03-31T15:21:53.063Z,9.80
2019-03-31T15:24:43.830Z,9.23
2019-03-31T15:27:33.997Z,10.20
2019-03-31T15:30:25.056Z,9.60
2019-03-31T15:33:16.214Z,8.33
2019-03-31T15:36:07.119Z,8.87
2019-03-31T15:39:08.072Z,7.93
2019-03-31T15:41:50.330Z,7.60
2019-03-31T15:44:41.582Z,7.40
2019-03-31T15:47:31.364Z,7.83
2019-03-31T15:50:22.491Z,7.20
2019-03-31T15:53:12.875Z,6.60
2019-03-31T15:56:03.976Z,7.33
2019-03-31T15:58:53.850Z,5.40
2019-03-31T16:01:43.457Z,6.03
2019-03-31T16:04:34.455Z,6.00
2019-03-31T16:07:24.980Z,5.77
2019-03-31T16:10:14.733Z,5.57
2019-03-31T16:13:04.898Z,5.90
2019-03-31T16:15:55.001Z,5.10
2019-03-31T16:18:45.030Z,6.10
2019-03-31T16:21:35.749Z,5.00
2019-03-31T16:24:37.781Z,4.70
2019-03-31T16:27:27.782Z,5.77
2019-03-31T16:30:18.156Z,5.80
2019-03-31T16:33:07.985Z,5.60
2019-03-31T16:35:58.218Z,3.80
2019-03-31T16:38:48.384Z,5.00
2019-03-31T16:41:38.443Z,5.20
2019-03-31T16:44:28.182Z,5.57
2019-03-31T16:47:18.247Z,4.97
2019-03-31T16:50:08.709Z,5.30
2019-03-31T16:52:58.484Z,5.83
2019-03-31T16:55:48.330Z,4.90
2019-03-31T16:58:37.836Z,5.50
2019-03-31T17:01:27.599Z,4.60
2019-03-31T17:04:17.893Z,5.03
2019-03-31T17:07:07.786Z,5.30
2019-03-31T17:09:57.540Z,4.63
2019-03-31T17:12:47.710Z,5.07
2019-03-31T17:15:37.417Z,5.80
2019-03-31T17:18:27.038Z,5.40
2019-03-31T17:21:16.888Z,5.30
2019-03-31T17:24:07.179Z,5.00
2019-03-31T17:26:57.470Z,6.20
2019-03-31T17:29:46.822Z,5.93
2019-03-31T17:32:36.151Z,6.17
2019-03-31T17:35:25.847Z,5.60
2019-03-31T17:38:15.344Z,5.20
2019-03-31T17:41:04.673Z,5.27
2019-03-31T17:43:54.606Z,5.20
2019-03-31T17:46:56.252Z,5.33
2019-03-31T17:49:45.535Z,4.87
2019-03-31T17:52:35.662Z,6.27
2019-03-31T17:55:26.487Z,6.20
2019-03-31T17:58:16.215Z,5.50
2019-03-31T18:01:07.017Z,6.07
2019-03-31T18:03:58.337Z,5.63
2019-03-31T18:06:47.480Z,5.13
2019-03-31T18:09:37.502Z,5.30
2019-03-31T18:12:27.226Z,4.93
2019-03-31T18:15:17.540Z,6.20
2019-03-31T18:18:07.812Z,5.60
2019-03-31T18:20:58.104Z,5.37
2019-03-31T18:23:47.980Z,5.90
2019-03-31T18:26:37.659Z,5.60
2019-03-31T18:29:27.783Z,5.80
2019-03-31T18:32:17.569Z,5.90
2019-03-31T18:35:07.818Z,5.60
2019-03-31T18:37:57.860Z,5.70
2019-03-31T18:40:47.503Z,6.70
2019-03-31T18:43:50.706Z,5.27
2019-03-31T18:46:28.809Z,5.73
2019-03-31T18:49:18.339Z,6.20
2019-03-31T18:52:08.356Z,6.40
2019-03-31T18:55:26.026Z,6.50
2019-03-31T18:58:32.987Z,8.07
2019-03-31T19:01:41.881Z,7.07
2019-03-31T19:05:01.008Z,5.93
2019-03-31T19:08:08.762Z,7.20
2019-03-31T19:11:10.231Z,7.80
2019-03-31T19:14:28.620Z,7.37
2019-03-31T19:17:49.414Z,7.20
2019-03-31T19:21:10.390Z,7.50
2019-03-31T19:24:00.207Z,7.30
2019-03-31T19:27:11.563Z,9.10
2019-03-31T19:30:09.134Z,17.10
2019-03-31T19:33:17.103Z,9.33
2019-03-31T19:36:25.941Z,10.50
2019-03-31T19:39:25.285Z,9.60
2019-03-31T19:42:33.141Z,8.27
2019-03-31T19:45:36.084Z,9.23
2019-03-31T19:48:48.070Z,7.53
2019-03-31T19:51:55.778Z,10.00
2019-03-31T19:55:06.340Z,10.83
2019-03-31T19:58:18.597Z,11.60
2019-03-31T20:01:30.318Z,15.17
2019-03-31T20:04:38.919Z,11.80
2019-03-31T20:07:46.701Z,9.43
2019-03-31T20:10:45.765Z,8.53
2019-03-31T20:13:54.886Z,5.73
2019-03-31T20:16:51.498Z,4.93
2019-03-31T20:19:48.968Z,4.83
2019-03-31T20:22:56.585Z,4.50
2019-03-31T20:26:02.588Z,4.33
2019-03-31T20:29:10.779Z,3.77
2019-03-31T20:32:16.000Z,3.30
2019-03-31T20:35:22.108Z,3.87
2019-03-31T20:38:24.865Z,4.23
2019-03-31T20:41:49.089Z,3.00
2019-03-31T20:44:38.684Z,3.00
2019-03-31T20:47:28.871Z,2.40
2019-03-31T20:50:18.819Z,2.87
2019-03-31T20:53:09.990Z,2.67
2019-03-31T20:55:59.803Z,2.20
2019-03-31T20:58:49.672Z,2.53
2019-03-31T21:01:39.299Z,2.40
2019-03-31T21:04:29.305Z,2.10
2019-03-31T21:07:19.367Z,2.07
2019-03-31T21:10:10.083Z,1.90
2019-03-31T21:13:00.300Z,1.90
2019-03-31T21:15:50.552Z,2.00
2019-03-31T21:18:40.514Z,1.87
2019-03-31T21:21:30.077Z,1.80
2019-03-31T21:24:19.961Z,2.10
2019-03-31T21:27:09.803Z,1.40
2019-03-31T21:29:59.821Z,1.57
2019-03-31T21:32:49.213Z,1.87
2019-03-31T21:35:39.502Z,1.97
2019-03-31T21:38:29.563Z,1.50
2019-03-31T21:41:19.295Z,1.30
2019-03-31T21:44:09.412Z,1.53
2019-03-31T21:46:59.166Z,1.20
2019-03-31T21:49:49.282Z,1.50
2019-03-31T21:52:39.446Z,1.60
2019-03-31T21:55:29.700Z,1.80
2019-03-31T21:58:19.706Z,1.60
2019-03-31T22:01:10.410Z,1.63
2019-03-31T22:04:00.336Z,1.90
2019-03-31T22:06:49.930Z,1.93
2019-03-31T22:09:39.969Z,1.97
2019-03-31T22:12:29.797Z,1.70
2019-03-31T22:15:19.704Z,1.23
2019-03-31T22:18:09.376Z,2.00
2019-03-31T22:20:59.558Z,1.40
2019-03-31T22:23:57.830Z,1.73
2019-03-31T22:26:41.517Z,1.60
2019-03-31T22:29:31.289Z,1.53
2019-03-31T22:32:21.072Z,1.67
2019-03-31T22:35:10.939Z,1.30
2019-03-31T22:38:02.617Z,2.10
2019-03-31T22:40:52.510Z,1.60
2019-03-31T22:43:42.375Z,1.50
2019-03-31T22:46:32.216Z,1.30
2019-03-31T22:49:22.520Z,1.90
2019-03-31T22:52:12.255Z,1.50
2019-03-31T22:55:01.960Z,1.43
2019-03-31T22:57:51.696Z,1.40
2019-03-31T23:00:41.580Z,1.60
2019-03-31T23:03:33.272Z,1.20
2019-03-31T23:06:23.118Z,2.03
2019-03-31T23:09:13.237Z,1.63
2019-03-31T23:12:04.540Z,1.77
2019-03-31T23:14:54.623Z,1.17
2019-03-31T23:17:44.654Z,1.40
2019-03-31T23:20:35.361Z,1.53
2019-03-31T23:23:26.900Z,1.30
2019-03-31T23:26:16.858Z,1.30
2019-03-31T23:29:06.644Z,1.50
2019-03-31T23:31:56.528Z,1.40
2019-03-31T23:34:46.390Z,1.30
2019-03-31T23:37:36.521Z,1.47
2019-03-31T23:40:26.379Z,1.40
2019-03-31T23:43:16.405Z,1.20
2019-03-31T23:46:06.249Z,1.20
2019-03-31T23:48:55.839Z,1.43
2019-03-31T23:51:45.653Z,1.47
2019-03-31T23:54:35.607Z,1.27
2019-03-31T23:57:41.181Z,1.60
